createdAt,value
2019-03-06T00:02:13.828Z,10.26
2019-03-06T00:04:43.531Z,10.13
2019-03-06T00:07:13.131Z,10.14
2019-03-06T00:09:42.888Z,10.18
2019-03-06T00:12:15.454Z,9.97
2019-03-06T00:14:45.167Z,9.88
2019-03-06T00:17:14.931Z,9.95
2019-03-06T00:19:44.615Z,9.77
2019-03-06T00:22:14.431Z,9.63
2019-03-06T00:24:44.177Z,9.46
2019-03-06T00:27:13.784Z,9.60
2019-03-06T00:29:43.567Z,9.70
2019-03-06T00:32:13.141Z,9.63
2019-03-06T00:34:42.924Z,9.43
2019-03-06T00:37:13.691Z,9.47
2019-03-06T00:39:54.310Z,9.56
2019-03-06T00:42:23.977Z,9.45
2019-03-06T00:44:53.509Z,9.49
2019-03-06T00:47:23.282Z,9.48
2019-03-06T00:49:53.009Z,9.53
2019-03-06T00:52:22.716Z,9.55
2019-03-06T00:54:52.386Z,9.65
2019-03-06T00:57:21.924Z,9.65
2019-03-06T00:59:51.764Z,9.28
2019-03-06T01:02:22.745Z,9.22
2019-03-06T01:04:54.811Z,9.32
2019-03-06T01:07:24.420Z,9.34
2019-03-06T01:09:54.306Z,9.26
2019-03-06T01:12:23.863Z,9.34
2019-03-06T01:14:53.599Z,9.31
2019-03-06T01:17:23.180Z,9.31
2019-03-06T01:19:52.843Z,9.28
2019-03-06T01:22:22.758Z,9.19
2019-03-06T01:24:52.404Z,9.13
2019-03-06T01:27:22.086Z,9.18
2019-03-06T01:29:51.752Z,9.29
2019-03-06T01:32:21.440Z,9.33
2019-03-06T01:35:08.537Z,9.31
2019-03-06T01:37:56.066Z,9.25
2019-03-06T01:40:36.514Z,9.36
2019-03-06T01:43:14.017Z,9.36
2019-03-06T01:45:43.540Z,9.31
2019-03-06T01:48:13.412Z,9.23
2019-03-06T01:50:45.511Z,9.16
2019-03-06T01:53:15.268Z,9.13
2019-03-06T01:55:44.704Z,9.09
2019-03-06T01:58:14.344Z,9.00
2019-03-06T02:00:44.390Z,8.88
2019-03-06T02:03:14.245Z,8.98
2019-03-06T02:05:43.906Z,8.85
2019-03-06T02:08:14.003Z,8.61
2019-03-06T02:10:43.576Z,8.45
2019-03-06T02:13:13.553Z,8.59
2019-03-06T02:15:43.376Z,8.62
2019-03-06T02:18:13.064Z,8.38
2019-03-06T02:20:42.591Z,8.38
2019-03-06T02:23:12.473Z,8.46
2019-03-06T02:25:42.194Z,8.28
2019-03-06T02:28:11.972Z,8.23
2019-03-06T02:30:41.633Z,8.25
2019-03-06T02:33:11.517Z,8.31
2019-03-06T02:35:41.482Z,8.35
2019-03-06T02:38:11.068Z,8.33
2019-03-06T02:40:40.762Z,8.35
2019-03-06T02:43:10.537Z,8.37
2019-03-06T02:45:42.214Z,8.39
2019-03-06T02:48:11.632Z,8.37
2019-03-06T02:50:41.342Z,8.37
2019-03-06T02:53:10.958Z,8.21
2019-03-06T02:55:40.680Z,8.23
2019-03-06T02:58:19.302Z,8.22
2019-03-06T03:01:11.121Z,8.23
2019-03-06T03:04:08.768Z,8.30
2019-03-06T03:06:45.039Z,8.21
2019-03-06T03:09:20.826Z,8.19
2019-03-06T03:11:50.441Z,8.19
2019-03-06T03:14:20.190Z,8.19
2019-03-06T03:16:49.849Z,8.20
2019-03-06T03:19:19.538Z,8.26
2019-03-06T03:21:49.326Z,8.23
2019-03-06T03:24:19.196Z,8.23
2019-03-06T03:26:48.664Z,8.10
2019-03-06T03:29:18.393Z,8.13
2019-03-06T03:31:47.998Z,8.25
2019-03-06T03:34:20.106Z,8.08
2019-03-06T03:36:49.967Z,7.84
2019-03-06T03:39:19.662Z,7.84
2019-03-06T03:41:49.224Z,7.96
2019-03-06T03:44:18.809Z,8.02
2019-03-06T03:46:48.465Z,8.08
2019-03-06T03:49:18.245Z,8.12
2019-03-06T03:51:47.818Z,8.03
2019-03-06T03:54:17.483Z,8.10
2019-03-06T03:56:47.220Z,8.11
2019-03-06T03:59:16.799Z,8.11
2019-03-06T04:01:46.725Z,8.15
2019-03-06T04:04:16.151Z,7.77
2019-03-06T04:06:46.212Z,7.77
2019-03-06T04:09:18.025Z,7.86
2019-03-06T04:11:47.593Z,7.86
2019-03-06T04:14:17.460Z,7.86
2019-03-06T04:16:47.171Z,7.84
2019-03-06T04:19:16.817Z,7.68
2019-03-06T04:21:46.417Z,7.66
2019-03-06T04:24:16.035Z,7.81
2019-03-06T04:26:45.872Z,7.84
2019-03-06T04:29:15.565Z,7.84
2019-03-06T04:31:45.374Z,7.94
2019-03-06T04:34:15.001Z,7.89
2019-03-06T04:36:46.302Z,7.91
2019-03-06T04:39:15.815Z,7.88
2019-03-06T04:41:45.531Z,7.61
2019-03-06T04:44:15.307Z,7.61
2019-03-06T04:46:44.989Z,7.73
2019-03-06T04:49:14.672Z,7.80
2019-03-06T04:51:44.219Z,7.65
2019-03-06T04:54:13.875Z,7.88
2019-03-06T04:56:43.582Z,7.97
2019-03-06T04:59:13.159Z,7.97
2019-03-06T05:01:43.020Z,8.10
2019-03-06T05:04:12.711Z,8.16
2019-03-06T05:06:42.315Z,8.18
2019-03-06T05:09:12.085Z,8.23
2019-03-06T05:11:41.658Z,8.27
2019-03-06T05:14:11.522Z,8.43
2019-03-06T05:17:02.583Z,8.41
2019-03-06T05:19:32.214Z,8.27
2019-03-06T05:22:04.305Z,8.27
2019-03-06T05:24:34.033Z,8.19
2019-03-06T05:27:03.745Z,8.11
2019-03-06T05:29:33.317Z,7.88
2019-03-06T05:32:30.686Z,7.68
2019-03-06T05:35:12.181Z,7.60
2019-03-06T05:38:06.259Z,7.69
2019-03-06T05:40:36.002Z,7.80
2019-03-06T05:43:05.875Z,7.82
2019-03-06T05:45:35.746Z,7.92
2019-03-06T05:48:05.645Z,7.98
2019-03-06T05:50:35.384Z,8.16
2019-03-06T05:53:05.032Z,8.16
2019-03-06T05:55:34.715Z,8.29
2019-03-06T05:58:04.714Z,8.32
2019-03-06T06:00:34.485Z,8.39
2019-03-06T06:03:04.156Z,8.61
2019-03-06T06:05:33.743Z,9.03
2019-03-06T06:08:03.505Z,9.21
2019-03-06T06:10:33.395Z,9.45
2019-03-06T06:13:02.992Z,9.59
2019-03-06T06:15:32.790Z,9.70
2019-03-06T06:18:02.392Z,9.87
2019-03-06T06:20:32.253Z,9.81
2019-03-06T06:23:17.317Z,9.79
2019-03-06T06:25:46.910Z,9.95
2019-03-06T06:28:16.638Z,9.81
2019-03-06T06:30:46.355Z,9.76
2019-03-06T06:33:16.007Z,9.86
2019-03-06T06:35:45.632Z,9.90
2019-03-06T06:38:15.058Z,10.10
2019-03-06T06:40:44.797Z,9.99
2019-03-06T06:43:14.361Z,9.96
2019-03-06T06:45:44.127Z,9.90
2019-03-06T06:48:18.429Z,9.96
2019-03-06T06:51:01.531Z,10.06
2019-03-06T06:53:45.165Z,10.21
2019-03-06T06:56:41.970Z,10.31
2019-03-06T06:59:25.755Z,10.30
2019-03-06T07:02:51.799Z,10.35
2019-03-06T07:05:45.768Z,10.71
2019-03-06T07:08:24.906Z,11.05
2019-03-06T07:11:25.537Z,11.27
2019-03-06T07:14:07.509Z,11.20
2019-03-06T07:17:11.564Z,11.67
2019-03-06T07:19:47.289Z,12.10
2019-03-06T07:22:36.052Z,12.56
2019-03-06T07:25:23.411Z,12.81
2019-03-06T07:28:00.419Z,13.71
2019-03-06T07:30:48.015Z,14.64
2019-03-06T07:33:49.095Z,15.35
2019-03-06T07:36:36.607Z,15.93
2019-03-06T07:39:18.211Z,16.54
2019-03-06T07:41:58.966Z,17.26
2019-03-06T07:44:53.653Z,18.26
2019-03-06T07:47:41.122Z,18.66
2019-03-06T07:50:45.942Z,19.31
2019-03-06T07:53:53.721Z,19.66
2019-03-06T07:56:44.739Z,21.00
2019-03-06T07:59:14.380Z,22.44
2019-03-06T08:01:50.904Z,22.98
2019-03-06T08:04:20.541Z,22.68
2019-03-06T08:07:00.658Z,22.74
2019-03-06T08:09:30.286Z,23.94
2019-03-06T08:12:17.718Z,25.20
2019-03-06T08:15:21.565Z,25.00
2019-03-06T08:18:06.304Z,24.21
2019-03-06T08:20:47.413Z,23.69
2019-03-06T08:23:26.454Z,23.72
2019-03-06T08:25:56.202Z,23.28
2019-03-06T08:28:25.870Z,23.19
2019-03-06T08:31:00.084Z,24.67
2019-03-06T08:33:29.826Z,26.27
2019-03-06T08:35:59.517Z,27.53
2019-03-06T08:38:29.275Z,27.61
2019-03-06T08:41:04.287Z,28.43
2019-03-06T08:43:30.269Z,28.39
2019-03-06T08:46:07.791Z,28.42
2019-03-06T08:48:46.893Z,28.41
2019-03-06T08:51:29.148Z,27.95
2019-03-06T08:54:19.948Z,26.13
2019-03-06T08:57:13.384Z,24.52
2019-03-06T09:03:10.358Z,25.94
2019-03-06T09:05:54.519Z,24.59
2019-03-06T09:08:39.830Z,24.18
2019-03-06T09:11:20.406Z,25.02
2019-03-06T09:14:07.011Z,25.57
2019-03-06T09:16:58.447Z,27.11
2019-03-06T09:19:36.100Z,28.93
2019-03-06T09:22:42.121Z,28.97
2019-03-06T09:25:29.177Z,28.57
2019-03-06T09:28:13.187Z,30.04
2019-03-06T09:30:49.002Z,31.08
2019-03-06T09:33:53.017Z,32.18
2019-03-06T09:36:41.655Z,30.04
2019-03-06T09:39:33.557Z,28.13
2019-03-06T09:42:34.505Z,26.39
2019-03-06T09:45:24.489Z,25.14
2019-03-06T09:48:31.392Z,24.72
2019-03-06T09:51:15.107Z,23.69
2019-03-06T09:54:09.738Z,22.21
2019-03-06T09:56:58.912Z,21.13
2019-03-06T09:59:36.377Z,20.44
2019-03-06T10:02:25.113Z,19.33
2019-03-06T10:05:09.712Z,18.48
2019-03-06T10:07:50.244Z,18.53
2019-03-06T10:10:46.191Z,18.46
2019-03-06T10:13:16.666Z,18.58
2019-03-06T10:16:08.740Z,20.91
2019-03-06T10:18:54.190Z,22.90
2019-03-06T10:21:25.763Z,24.94
2019-03-06T10:23:55.620Z,26.76
2019-03-06T10:26:25.411Z,29.33
2019-03-06T10:28:54.937Z,29.13
2019-03-06T10:31:24.585Z,29.26
2019-03-06T10:33:54.387Z,28.62
2019-03-06T10:36:24.085Z,28.88
2019-03-06T10:38:56.446Z,29.23
2019-03-06T10:41:26.124Z,29.45
2019-03-06T10:43:55.845Z,30.58
2019-03-06T10:46:25.535Z,28.80
2019-03-06T10:48:55.339Z,29.68
2019-03-06T10:51:25.099Z,30.23
2019-03-06T10:53:54.868Z,31.02
2019-03-06T10:56:24.652Z,31.13
2019-03-06T10:58:54.496Z,31.07
2019-03-06T11:01:24.498Z,31.90
2019-03-06T11:04:25.449Z,33.62
2019-03-06T11:06:55.563Z,34.40
2019-03-06T11:09:26.456Z,34.83
2019-03-06T11:11:56.463Z,35.02
2019-03-06T11:14:28.606Z,34.07
2019-03-06T11:16:58.436Z,32.04
2019-03-06T11:19:28.527Z,32.29
2019-03-06T11:21:58.237Z,32.41
2019-03-06T11:24:28.076Z,31.86
2019-03-06T11:26:58.310Z,30.89
2019-03-06T11:29:27.992Z,30.71
2019-03-06T11:31:57.714Z,31.38
2019-03-06T11:34:27.480Z,32.62
2019-03-06T11:36:58.093Z,32.52
2019-03-06T11:39:28.064Z,33.63
2019-03-06T11:41:57.965Z,33.28
2019-03-06T11:44:27.656Z,32.54
2019-03-06T11:46:57.222Z,31.40
2019-03-06T11:49:26.843Z,30.65
2019-03-06T11:51:56.599Z,28.57
2019-03-06T11:54:26.126Z,27.18
2019-03-06T11:56:55.700Z,26.28
2019-03-06T11:59:25.326Z,24.93
2019-03-06T12:01:54.941Z,24.00
2019-03-06T12:04:27.422Z,23.92
2019-03-06T12:06:57.374Z,23.34
2019-03-06T12:09:29.467Z,22.39
2019-03-06T12:11:59.295Z,22.22
2019-03-06T12:14:28.970Z,21.92
2019-03-06T12:16:58.748Z,21.23
2019-03-06T12:19:28.518Z,20.80
2019-03-06T12:21:58.712Z,20.44
2019-03-06T12:24:28.419Z,20.11
2019-03-06T12:26:58.056Z,20.19
2019-03-06T12:29:27.893Z,20.19
2019-03-06T12:31:57.770Z,19.86
2019-03-06T12:34:27.803Z,19.35
2019-03-06T12:36:57.675Z,19.15
2019-03-06T12:39:27.268Z,18.93
2019-03-06T12:41:58.828Z,18.93
2019-03-06T12:44:28.433Z,18.91
2019-03-06T12:47:00.741Z,18.73
2019-03-06T12:49:31.006Z,18.56
2019-03-06T12:52:00.756Z,18.48
2019-03-06T12:54:31.398Z,18.59
2019-03-06T12:57:01.082Z,18.65
2019-03-06T12:59:31.347Z,18.35
2019-03-06T13:02:01.085Z,18.16
2019-03-06T13:04:30.765Z,18.07
2019-03-06T13:07:00.505Z,18.10
2019-03-06T13:09:30.171Z,17.97
2019-03-06T13:12:01.626Z,17.89
2019-03-06T13:14:31.358Z,17.81
2019-03-06T13:17:00.948Z,17.79
2019-03-06T13:19:30.625Z,17.72
2019-03-06T13:22:00.173Z,17.58
2019-03-06T13:24:32.130Z,17.36
2019-03-06T13:27:02.044Z,17.46
2019-03-06T13:29:31.628Z,17.56
2019-03-06T13:32:01.316Z,17.51
2019-03-06T13:34:50.283Z,17.49
2019-03-06T13:37:14.965Z,17.49
2019-03-06T13:39:44.808Z,17.59
2019-03-06T13:42:14.474Z,17.58
2019-03-06T13:44:44.225Z,17.61
2019-03-06T13:47:14.038Z,17.68
2019-03-06T13:49:43.926Z,17.71
2019-03-06T13:52:13.884Z,17.66
2019-03-06T13:54:45.607Z,17.58
2019-03-06T13:57:15.775Z,17.53
2019-03-06T13:59:45.395Z,17.42
2019-03-06T14:02:15.103Z,17.46
2019-03-06T14:04:44.736Z,17.44
2019-03-06T14:07:14.668Z,17.42
2019-03-06T14:09:44.276Z,17.45
2019-03-06T14:12:13.922Z,17.47
2019-03-06T14:14:43.536Z,17.43
2019-03-06T14:17:13.329Z,17.51
2019-03-06T14:19:42.993Z,17.39
2019-03-06T14:22:12.731Z,17.31
2019-03-06T14:24:42.405Z,17.40
2019-03-06T14:27:12.065Z,17.43
2019-03-06T14:29:41.777Z,17.21
2019-03-06T14:32:14.870Z,17.19
2019-03-06T14:34:43.147Z,17.17
2019-03-06T14:37:12.841Z,17.13
2019-03-06T14:39:42.542Z,17.18
2019-03-06T14:42:12.651Z,17.07
2019-03-06T14:44:42.160Z,17.08
2019-03-06T14:47:13.287Z,16.98
2019-03-06T14:49:42.858Z,16.95
2019-03-06T14:52:12.694Z,16.96
2019-03-06T14:54:42.294Z,16.99
2019-03-06T14:57:12.214Z,16.97
2019-03-06T14:59:42.071Z,16.88
2019-03-06T15:02:12.096Z,16.85
2019-03-06T15:04:41.769Z,16.84
2019-03-06T15:07:11.505Z,16.87
2019-03-06T15:09:41.184Z,16.86
2019-03-06T15:12:10.836Z,16.81
2019-03-06T15:14:40.577Z,16.77
2019-03-06T15:17:10.263Z,16.75
2019-03-06T15:19:41.864Z,16.79
2019-03-06T15:22:11.433Z,16.81
2019-03-06T15:24:41.893Z,16.73
2019-03-06T15:27:11.634Z,16.59
2019-03-06T15:29:44.357Z,16.56
2019-03-06T15:32:14.088Z,16.55
2019-03-06T15:34:43.847Z,16.52
2019-03-06T15:37:13.614Z,16.47
2019-03-06T15:39:48.730Z,16.43
2019-03-06T15:42:15.663Z,16.33
2019-03-06T15:44:45.388Z,16.31
2019-03-06T15:47:15.190Z,16.27
2019-03-06T15:49:44.950Z,16.22
2019-03-06T15:52:14.628Z,16.13
2019-03-06T15:54:44.370Z,16.08
2019-03-06T15:57:14.221Z,16.07
2019-03-06T15:59:43.819Z,15.98
2019-03-06T16:02:13.728Z,15.95
2019-03-06T16:04:43.429Z,15.89
2019-03-06T16:07:13.113Z,15.83
2019-03-06T16:09:43.029Z,15.72
2019-03-06T16:12:13.006Z,15.67
2019-03-06T16:14:42.635Z,15.60
2019-03-06T16:17:12.207Z,15.57
2019-03-06T16:19:41.854Z,15.50
2019-03-06T16:22:11.810Z,15.42
2019-03-06T16:24:41.502Z,15.36
2019-03-06T16:27:11.151Z,15.31
2019-03-06T16:29:40.792Z,15.24
2019-03-06T16:32:10.361Z,15.17
2019-03-06T16:34:40.079Z,15.11
2019-03-06T16:37:09.847Z,15.03
2019-03-06T16:39:41.618Z,14.96
2019-03-06T16:42:11.273Z,14.89
2019-03-06T16:44:40.938Z,14.84
2019-03-06T16:47:12.052Z,14.77
2019-03-06T16:49:41.970Z,14.65
2019-03-06T16:52:12.587Z,14.55
2019-03-06T16:54:42.204Z,14.35
2019-03-06T16:57:13.534Z,14.26
2019-03-06T16:59:43.309Z,14.20
2019-03-06T17:02:13.840Z,14.07
2019-03-06T17:04:43.581Z,13.96
2019-03-06T17:07:13.115Z,13.84
2019-03-06T17:09:42.729Z,13.60
2019-03-06T17:12:12.460Z,13.48
2019-03-06T17:14:42.258Z,13.30
2019-03-06T17:17:11.957Z,13.12
2019-03-06T17:19:41.604Z,13.04
2019-03-06T17:22:11.253Z,13.03
2019-03-06T17:24:41.078Z,13.00
2019-03-06T17:27:11.053Z,12.87
2019-03-06T17:29:41.191Z,12.73
2019-03-06T17:32:11.131Z,12.66
2019-03-06T17:34:42.635Z,12.74
2019-03-06T17:37:12.380Z,12.76
2019-03-06T17:39:42.056Z,12.61
2019-03-06T17:42:11.684Z,12.46
2019-03-06T17:44:41.781Z,12.38
2019-03-06T17:47:11.527Z,12.28
2019-03-06T17:49:42.314Z,12.23
2019-03-06T17:52:11.993Z,12.09
2019-03-06T17:54:42.526Z,12.04
2019-03-06T17:57:12.375Z,11.95
2019-03-06T17:59:43.292Z,11.91
2019-03-06T18:02:13.316Z,11.83
2019-03-06T18:04:43.141Z,11.76
2019-03-06T18:07:12.934Z,11.67
2019-03-06T18:09:42.724Z,11.60
2019-03-06T18:12:12.539Z,11.59
2019-03-06T18:14:42.438Z,11.46
2019-03-06T18:17:13.576Z,11.39
2019-03-06T18:19:43.310Z,11.23
2019-03-06T18:22:12.988Z,11.29
2019-03-06T18:24:43.195Z,11.27
2019-03-06T18:27:12.844Z,11.10
2019-03-06T18:29:42.573Z,11.01
2019-03-06T18:32:12.474Z,10.93
2019-03-06T18:34:42.073Z,10.85
2019-03-06T18:37:11.753Z,10.80
2019-03-06T18:39:41.705Z,10.92
2019-03-06T18:42:11.335Z,10.85
2019-03-06T18:44:41.051Z,10.81
2019-03-06T18:47:10.762Z,10.82
2019-03-06T18:49:40.674Z,10.84
2019-03-06T18:52:11.662Z,10.79
2019-03-06T18:54:41.420Z,10.81
2019-03-06T18:57:13.276Z,10.75
2019-03-06T18:59:42.516Z,10.75
2019-03-06T19:02:12.346Z,10.50
2019-03-06T19:04:41.840Z,10.45
2019-03-06T19:07:11.807Z,10.47
2019-03-06T19:09:41.318Z,10.40
2019-03-06T19:12:10.902Z,10.39
2019-03-06T19:14:42.448Z,10.30
2019-03-06T19:17:12.149Z,10.32
2019-03-06T19:19:41.865Z,10.29
2019-03-06T19:22:11.775Z,10.28
2019-03-06T19:24:41.303Z,10.41
2019-03-06T19:27:11.207Z,10.44
2019-03-06T19:29:40.880Z,10.39
2019-03-06T19:32:10.430Z,10.38
2019-03-06T19:34:40.448Z,10.44
2019-03-06T19:37:10.265Z,10.47
2019-03-06T19:39:40.059Z,10.50
2019-03-06T19:42:09.888Z,10.52
2019-03-06T19:44:39.410Z,10.55
2019-03-06T19:47:09.430Z,10.52
2019-03-06T19:49:39.257Z,10.49
2019-03-06T19:52:08.829Z,10.43
2019-03-06T19:54:38.458Z,10.24
2019-03-06T19:57:08.244Z,10.16
2019-03-06T19:59:37.959Z,10.07
2019-03-06T20:02:08.053Z,10.10
2019-03-06T20:04:38.027Z,10.03
2019-03-06T20:07:09.792Z,10.02
2019-03-06T20:09:39.475Z,10.03
2019-03-06T20:12:09.186Z,9.98
2019-03-06T20:14:39.035Z,10.05
2019-03-06T20:17:08.756Z,10.08
2019-03-06T20:19:38.380Z,10.08
2019-03-06T20:22:07.976Z,10.04
2019-03-06T20:24:37.523Z,9.96
2019-03-06T20:27:07.229Z,9.89
2019-03-06T20:29:37.002Z,9.88
2019-03-06T20:32:06.565Z,9.95
2019-03-06T20:34:36.239Z,9.89
2019-03-06T20:37:05.939Z,9.89
2019-03-06T20:39:35.656Z,9.84
2019-03-06T20:42:05.285Z,9.72
2019-03-06T20:44:34.944Z,9.67
2019-03-06T20:47:04.524Z,9.52
2019-03-06T20:49:34.283Z,9.50
2019-03-06T20:52:04.009Z,9.41
2019-03-06T20:54:33.626Z,9.39
2019-03-06T20:57:03.319Z,9.38
2019-03-06T20:59:32.869Z,9.38
2019-03-06T21:02:04.263Z,9.35
2019-03-06T21:04:34.132Z,9.33
2019-03-06T21:07:03.880Z,9.37
2019-03-06T21:09:33.593Z,9.36
2019-03-06T21:12:03.362Z,9.31
2019-03-06T21:14:32.986Z,9.35
2019-03-06T21:17:02.515Z,9.29
2019-03-06T21:19:32.141Z,9.35
2019-03-06T21:22:01.755Z,9.34
2019-03-06T21:24:31.483Z,9.37
2019-03-06T21:27:02.678Z,9.32
2019-03-06T21:29:32.311Z,9.34
2019-03-06T21:32:01.908Z,9.23
2019-03-06T21:34:31.621Z,9.20
2019-03-06T21:37:01.259Z,9.17
2019-03-06T21:39:30.878Z,9.17
2019-03-06T21:42:00.543Z,9.09
2019-03-06T21:44:30.226Z,9.07
2019-03-06T21:46:59.930Z,9.02
2019-03-06T21:49:30.366Z,9.00
2019-03-06T21:52:02.650Z,8.79
2019-03-06T21:54:32.303Z,8.77
2019-03-06T21:57:02.023Z,8.72
2019-03-06T21:59:31.869Z,8.72
2019-03-06T22:02:01.554Z,8.70
2019-03-06T22:04:33.245Z,8.58
2019-03-06T22:07:02.536Z,8.58
2019-03-06T22:09:32.209Z,8.61
2019-03-06T22:12:02.004Z,8.53
2019-03-06T22:14:31.547Z,8.55
2019-03-06T22:17:01.200Z,8.51
2019-03-06T22:19:31.656Z,8.49
2019-03-06T22:22:01.508Z,8.50
2019-03-06T22:24:31.146Z,8.43
2019-03-06T22:27:00.693Z,8.43
2019-03-06T22:29:30.343Z,8.45
2019-03-06T22:31:59.947Z,8.43
2019-03-06T22:34:29.790Z,8.43
2019-03-06T22:36:59.304Z,8.44
2019-03-06T22:39:30.103Z,8.35
2019-03-06T22:41:59.779Z,8.31
2019-03-06T22:44:29.512Z,8.24
2019-03-06T22:47:01.438Z,8.34
2019-03-06T22:49:31.007Z,8.31
2019-03-06T22:52:00.638Z,8.23
2019-03-06T22:54:30.421Z,8.28
2019-03-06T22:57:00.151Z,8.30
2019-03-06T22:59:29.865Z,8.30
2019-03-06T23:02:01.916Z,8.28
2019-03-06T23:04:31.479Z,8.26
2019-03-06T23:07:01.130Z,8.14
2019-03-06T23:09:30.876Z,8.04
2019-03-06T23:12:00.493Z,7.94
2019-03-06T23:14:31.561Z,7.99
2019-03-06T23:17:01.123Z,7.91
2019-03-06T23:19:30.814Z,7.94
2019-03-06T23:22:00.467Z,7.87
2019-03-06T23:24:30.179Z,7.87
2019-03-06T23:27:01.767Z,7.69
2019-03-06T23:29:33.526Z,7.69
2019-03-06T23:32:03.187Z,7.75
2019-03-06T23:34:32.797Z,7.75
2019-03-06T23:37:02.572Z,7.73
2019-03-06T23:39:32.163Z,7.72
2019-03-06T23:42:02.995Z,7.66
2019-03-06T23:44:32.735Z,7.66
2019-03-06T23:47:02.394Z,7.53
2019-03-06T23:49:32.094Z,7.53
2019-03-06T23:52:06.839Z,7.67
2019-03-06T23:54:36.357Z,7.69
2019-03-06T23:57:06.119Z,7.69
2019-03-06T23:59:36.503Z,7.65
